Time;durP1;ratioP1;P1;durP2;ratioP2;P2;SDS_P1;SDS_P2;PMS_P1;PMS_P2;Temp;Humidity;BMP_temperature;BMP_pressure;BME280_temperature;BME280_humidity;BME280_pressure;Samples;Min_cycle;Max_cycle;Signal;HPM_P1;HPM_P2
2022/11/25 00:01:10;;;;;;;12.85;4.22;;;8.00;99.90;;;;;;5072645;28;20040;-66
2022/11/25 00:03:37;;;;;;;17.73;4.30;;;8.00;99.90;;;;;;5042172;28;20083;-66
2022/11/25 00:06:17;;;;;;;15.73;4.53;;;8.00;99.90;;;;;;5062588;28;20041;-67
2022/11/25 00:08:45;;;;;;;15.93;4.60;;;8.00;99.90;;;;;;5052185;28;20056;-67
2022/11/25 00:11:11;;;;;;;16.70;4.18;;;8.10;99.90;;;;;;5057831;28;20040;-67
2022/11/25 00:13:39;;;;;;;14.00;4.05;;;8.10;99.90;;;;;;5052562;28;20062;-67
2022/11/25 00:16:07;;;;;;;13.70;4.43;;;8.10;99.90;;;;;;5029922;28;20053;-67
2022/11/25 00:18:34;;;;;;;15.35;4.13;;;8.10;99.90;;;;;;5051017;28;20044;-66
2022/11/25 00:21:08;;;;;;;13.32;3.70;;;8.20;99.90;;;;;;5055100;28;20041;-67
2022/11/25 00:23:34;;;;;;;18.58;4.07;;;8.20;99.90;;;;;;5034594;28;20086;-65
2022/11/25 00:26:06;;;;;;;13.73;3.83;;;8.30;99.90;;;;;;5053723;28;20496;-65
2022/11/25 00:28:32;;;;;;;17.02;4.45;;;8.30;99.90;;;;;;5038765;28;20036;-65
2022/11/25 00:31:07;;;;;;;13.25;3.72;;;8.30;99.90;;;;;;5055336;28;20048;-67
2022/11/25 00:33:33;;;;;;;18.60;4.07;;;8.30;99.90;;;;;;5050505;28;20036;-67
2022/11/25 00:36:03;;;;;;;15.00;4.03;;;8.30;99.90;;;;;;5058729;28;20043;-66
2022/11/25 00:38:28;;;;;;;15.70;4.25;;;8.40;99.90;;;;;;5059799;28;20094;-66
2022/11/25 00:46:23;;;;;;;15.63;4.60;;;8.40;99.90;;;;;;5055686;28;20044;-67
2022/11/25 00:48:49;;;;;;;12.13;3.67;;;8.40;99.90;;;;;;5039677;28;20394;-65
2022/11/25 00:51:14;;;;;;;18.75;4.80;;;8.40;99.90;;;;;;5051639;28;20044;-65
2022/11/25 00:53:40;;;;;;;19.92;6.03;;;8.30;99.90;;;;;;5058724;28;20545;-65
2022/11/25 00:56:15;;;;;;;14.80;3.78;;;8.30;99.90;;;;;;5053845;28;20047;-66
2022/11/25 00:58:42;;;;;;;15.05;4.40;;;8.20;99.90;;;;;;5052968;28;20557;-65
2022/11/25 01:01:08;;;;;;;15.55;3.53;;;8.20;99.90;;;;;;5042682;28;20059;-65
2022/11/25 01:03:36;;;;;;;16.75;3.78;;;8.20;99.90;;;;;;5066952;28;20041;-65
2022/11/25 01:06:07;;;;;;;15.82;4.10;;;8.30;99.90;;;;;;5033797;28;20037;-65
2022/11/25 01:08:34;;;;;;;16.00;3.60;;;8.30;99.90;;;;;;5035008;28;20238;-66
2022/11/25 01:11:00;;;;;;;13.18;3.78;;;8.30;99.90;;;;;;5053804;28;20049;-66
2022/11/25 01:13:26;;;;;;;14.80;4.53;;;8.40;99.90;;;;;;5051355;28;20051;-66
2022/11/25 01:15:52;;;;;;;11.13;4.25;;;8.40;99.90;;;;;;5051743;28;20041;-65
2022/11/25 01:18:17;;;;;;;15.23;3.83;;;8.40;99.90;;;;;;5058654;28;20048;-66
2022/11/25 01:20:43;;;;;;;12.48;3.80;;;8.40;99.90;;;;;;5054764;28;20052;-65
2022/11/25 01:23:08;;;;;;;13.80;4.00;;;8.40;99.90;;;;;;5051312;28;20462;-68
2022/11/25 01:25:38;;;;;;;18.02;3.72;;;8.50;99.90;;;;;;5050486;28;20051;-67
2022/11/25 01:28:04;;;;;;;18.02;4.00;;;8.50;99.90;;;;;;5035285;28;20040;-66
2022/11/25 01:30:30;;;;;;;15.85;3.95;;;8.50;99.90;;;;;;5063908;28;20033;-66
2022/11/25 01:32:55;;;;;;;18.35;4.53;;;8.60;99.90;;;;;;5063140;28;20052;-67
2022/11/25 01:35:21;;;;;;;18.83;4.13;;;8.60;99.90;;;;;;5064854;28;20513;-65
2022/11/25 01:37:47;;;;;;;13.93;3.75;;;8.60;99.90;;;;;;5056111;28;20419;-65
2022/11/25 01:40:12;;;;;;;12.95;3.97;;;8.60;99.90;;;;;;5038933;28;20044;-65
2022/11/25 01:42:44;;;;;;;16.15;3.70;;;8.70;99.90;;;;;;5062967;28;20033;-66
2022/11/25 01:45:22;;;;;;;14.68;3.90;;;8.70;99.90;;;;;;5054741;28;20440;-65
2022/11/25 01:47:49;;;;;;;12.73;3.97;;;8.70;99.90;;;;;;5062680;28;20037;-66
2022/11/25 01:50:17;;;;;;;15.68;4.03;;;8.70;99.90;;;;;;5047029;28;20479;-65
2022/11/25 01:52:45;;;;;;;15.88;3.92;;;8.70;99.90;;;;;;5032193;28;20128;-66
2022/11/25 01:55:22;;;;;;;14.55;3.70;;;8.70;99.90;;;;;;5050986;28;20048;-67
2022/11/25 01:57:54;;;;;;;14.35;4.00;;;8.70;99.90;;;;;;5051036;28;20045;-67
2022/11/25 02:00:20;;;;;;;19.45;4.68;;;8.70;99.90;;;;;;5065398;28;20084;-65
2022/11/25 02:02:48;;;;;;;14.07;4.30;;;8.70;99.90;;;;;;5066857;28;20060;-65
2022/11/25 02:05:18;;;;;;;18.35;4.57;;;8.70;99.90;;;;;;5057340;28;20056;-65
2022/11/25 02:07:46;;;;;;;15.55;4.80;;;8.60;99.90;;;;;;5058894;28;20053;-65
2022/11/25 02:10:18;;;;;;;16.33;4.15;;;8.60;99.90;;;;;;5065936;28;20533;-65
2022/11/25 02:12:45;;;;;;;16.27;4.65;;;8.60;99.90;;;;;;5041343;22;20411;-70
2022/11/25 02:15:12;;;;;;;16.08;5.32;;;8.60;99.90;;;;;;5013566;28;20038;-69
2022/11/25 02:17:38;;;;;;;17.92;4.45;;;8.60;99.90;;;;;;5004937;28;20038;-69
2022/11/25 02:20:15;;;;;;;13.63;4.13;;;8.50;99.90;;;;;;5006501;28;20095;-69
2022/11/25 02:23:03;;;;;;;16.58;3.95;;;8.50;99.90;;;;;;5013163;28;20195;-69
2022/11/25 02:25:39;;;;;;;16.17;4.43;;;8.50;99.90;;;;;;5008472;28;20045;-69
2022/11/25 02:28:12;;;;;;;14.88;4.63;;;8.50;99.90;;;;;;5009853;28;20152;-70
2022/11/25 02:30:37;;;;;;;16.45;4.50;;;8.50;99.90;;;;;;5012648;28;20049;-70
2022/11/25 02:33:03;;;;;;;15.40;4.45;;;8.50;99.90;;;;;;4986723;28;20408;-70
2022/11/25 02:35:34;;;;;;;20.98;4.60;;;8.50;99.90;;;;;;5007446;28;20474;-69
2022/11/25 02:38:07;;;;;;;16.88;4.80;;;8.50;99.90;;;;;;5013485;28;20049;-69
2022/11/25 02:40:42;;;;;;;23.42;4.63;;;8.50;99.90;;;;;;5009999;28;20045;-68
2022/11/25 02:43:08;;;;;;;20.73;4.80;;;8.60;99.90;;;;;;5005916;28;20081;-69
2022/11/25 02:45:49;;;;;;;13.77;4.82;;;8.60;99.90;;;;;;5014594;28;20038;-69
2022/11/25 02:48:15;;;;;;;14.45;4.00;;;8.50;99.90;;;;;;5005975;28;20050;-68
2022/11/25 02:50:41;;;;;;;21.20;5.03;;;8.60;99.90;;;;;;4998114;28;20108;-68
2022/11/25 02:53:07;;;;;;;15.90;4.28;;;8.60;99.90;;;;;;5008553;28;20042;-69
2022/11/25 02:55:32;;;;;;;22.30;4.57;;;8.70;99.90;;;;;;5013131;28;20072;-69
2022/11/25 02:57:58;;;;;;;20.70;5.20;;;8.60;99.90;;;;;;5011718;28;20035;-70
2022/11/25 03:00:24;;;;;;;13.27;4.43;;;8.70;99.90;;;;;;5011581;28;20149;-69
2022/11/25 03:02:53;;;;;;;18.83;4.82;;;8.70;99.90;;;;;;5004591;28;20045;-69
2022/11/25 03:05:20;;;;;;;20.13;5.20;;;8.70;99.90;;;;;;5012524;28;20109;-72
2022/11/25 03:07:46;;;;;;;14.77;4.32;;;8.70;99.90;;;;;;5006309;28;20124;-70
2022/11/25 03:10:12;;;;;;;16.17;4.65;;;8.70;99.90;;;;;;5006985;28;20117;-68
2022/11/25 03:12:37;;;;;;;14.48;5.38;;;8.70;99.90;;;;;;5013776;28;20091;-69
2022/11/25 03:15:03;;;;;;;14.45;4.15;;;8.70;99.90;;;;;;5007085;28;20108;-69
2022/11/25 03:17:29;;;;;;;16.92;4.55;;;8.70;99.90;;;;;;5008615;28;20407;-69
2022/11/25 03:19:54;;;;;;;19.58;4.25;;;8.70;99.90;;;;;;5012903;28;20030;-69
2022/11/25 03:22:20;;;;;;;18.20;5.70;;;8.70;99.90;;;;;;5008088;28;20104;-68
2022/11/25 03:24:46;;;;;;;17.42;4.45;;;8.70;99.90;;;;;;5009122;28;20116;-69
2022/11/25 03:27:11;;;;;;;14.63;4.68;;;8.70;99.90;;;;;;5012595;28;20041;-68
2022/11/25 03:29:37;;;;;;;13.85;4.50;;;8.70;99.90;;;;;;5010314;28;20038;-70
2022/11/25 03:32:03;;;;;;;16.23;4.63;;;8.70;99.90;;;;;;5003237;28;20508;-69
2022/11/25 03:34:28;;;;;;;18.65;4.82;;;8.70;99.90;;;;;;5009067;28;20061;-70
2022/11/25 03:36:54;;;;;;;20.98;6.00;;;8.70;99.90;;;;;;5011670;28;20046;-70
2022/11/25 03:39:19;;;;;;;16.30;4.65;;;8.70;99.90;;;;;;5009419;28;20038;-69
2022/11/25 03:41:45;;;;;;;17.83;5.68;;;8.70;99.90;;;;;;5005827;28;20065;-69
2022/11/25 03:44:10;;;;;;;15.32;4.80;;;8.60;99.90;;;;;;5012449;28;20076;-69
2022/11/25 03:46:36;;;;;;;20.17;4.65;;;8.70;99.90;;;;;;5013671;28;20506;-70
2022/11/25 03:49:02;;;;;;;22.95;6.20;;;8.60;99.90;;;;;;5007051;28;20045;-70
2022/11/25 03:51:28;;;;;;;16.15;4.72;;;8.70;99.90;;;;;;4998966;28;20050;-70
2022/11/25 03:53:54;;;;;;;14.80;4.43;;;8.70;99.90;;;;;;5011728;28;20451;-68
2022/11/25 03:56:19;;;;;;;20.02;4.70;;;8.70;99.90;;;;;;5009752;28;20048;-69
2022/11/25 03:58:45;;;;;;;23.35;5.25;;;8.70;99.90;;;;;;5010922;28;20508;-70
2022/11/25 04:01:10;;;;;;;20.38;5.30;;;8.70;99.90;;;;;;5011639;28;20042;-70
2022/11/25 04:03:36;;;;;;;20.85;5.13;;;8.70;99.90;;;;;;5013216;28;20042;-70
2022/11/25 04:06:02;;;;;;;12.85;4.28;;;8.70;99.90;;;;;;5003933;28;20100;-70
2022/11/25 04:08:27;;;;;;;18.08;5.25;;;8.80;99.90;;;;;;5007243;28;20038;-70
2022/11/25 04:10:53;;;;;;;15.63;4.88;;;8.80;99.90;;;;;;5010409;28;20033;-70
2022/11/25 04:13:18;;;;;;;15.20;4.80;;;8.80;99.90;;;;;;4999502;28;20133;-70
2022/11/25 04:15:49;;;;;;;13.48;5.13;;;8.80;99.90;;;;;;5011567;28;20038;-69
2022/11/25 04:18:15;;;;;;;18.83;5.75;;;8.80;99.90;;;;;;5011650;28;20041;-69
2022/11/25 04:20:41;;;;;;;21.60;5.07;;;8.80;99.90;;;;;;5012524;28;20803;-69
2022/11/25 04:23:08;;;;;;;16.67;5.10;;;8.80;99.90;;;;;;5005690;28;20158;-69
2022/11/25 04:25:34;;;;;;;19.25;5.25;;;8.90;99.90;;;;;;5011013;28;20045;-69
2022/11/25 04:28:00;;;;;;;21.00;6.03;;;8.90;99.90;;;;;;5013028;28;20581;-68
2022/11/25 04:30:26;;;;;;;19.58;5.38;;;8.90;99.90;;;;;;4997419;28;20125;-69
2022/11/25 04:32:52;;;;;;;19.80;5.53;;;8.90;99.90;;;;;;5011836;28;20120;-68
2022/11/25 04:35:18;;;;;;;16.23;5.93;;;8.90;99.90;;;;;;5010805;28;20502;-69
2022/11/25 04:37:43;;;;;;;14.48;5.40;;;8.90;99.90;;;;;;5010549;28;20089;-71
2022/11/25 04:40:10;;;;;;;17.33;5.20;;;8.90;99.90;;;;;;5007631;28;20423;-69
2022/11/25 04:42:38;;;;;;;17.73;5.20;;;8.90;99.90;;;;;;5009629;28;20070;-69
2022/11/25 04:45:10;;;;;;;18.48;5.85;;;8.90;99.90;;;;;;5010730;28;20045;-67
2022/11/25 04:47:36;;;;;;;19.92;5.68;;;8.90;99.90;;;;;;5006900;28;20488;-68
2022/11/25 04:50:03;;;;;;;19.65;5.90;;;8.90;99.90;;;;;;5010958;28;20115;-69
2022/11/25 04:52:28;;;;;;;19.58;6.30;;;8.90;99.90;;;;;;5013634;28;20046;-70
2022/11/25 04:54:54;;;;;;;19.35;5.88;;;8.90;99.90;;;;;;5007247;28;20045;-68
2022/11/25 04:57:20;;;;;;;21.42;6.55;;;8.90;99.90;;;;;;5012106;28;20048;-68
2022/11/25 04:59:46;;;;;;;19.23;6.15;;;8.90;99.90;;;;;;5011361;28;20045;-69
2022/11/25 05:02:22;;;;;;;22.05;6.35;;;8.90;99.90;;;;;;4999839;28;20041;-70
2022/11/25 05:04:49;;;;;;;18.92;6.18;;;8.90;99.90;;;;;;5009381;28;20030;-69
2022/11/25 05:07:16;;;;;;;22.77;6.32;;;8.80;99.90;;;;;;5011715;28;20507;-70
2022/11/25 05:09:42;;;;;;;16.83;5.90;;;8.80;99.90;;;;;;5010537;28;20034;-69
2022/11/25 05:12:15;;;;;;;21.02;6.63;;;8.80;99.90;;;;;;5001603;28;20049;-69
2022/11/25 05:14:40;;;;;;;18.60;5.65;;;8.80;99.90;;;;;;5010290;28;20042;-69
2022/11/25 05:17:10;;;;;;;17.58;6.82;;;8.80;99.90;;;;;;5008844;28;20049;-69
2022/11/25 05:19:36;;;;;;;25.33;6.50;;;8.80;99.90;;;;;;5003169;28;20046;-70
2022/11/25 05:22:01;;;;;;;20.98;7.05;;;8.80;99.90;;;;;;4999575;28;20056;-69
2022/11/25 05:24:27;;;;;;;16.27;6.72;;;8.80;99.90;;;;;;5009292;28;20065;-69
2022/11/25 05:26:53;;;;;;;23.27;6.93;;;8.80;99.90;;;;;;4992786;28;20056;-68
2022/11/25 05:29:18;;;;;;;17.77;6.88;;;8.80;99.90;;;;;;5010268;28;20038;-69
2022/11/25 05:31:44;;;;;;;22.98;7.20;;;8.80;99.90;;;;;;5009884;28;20412;-69
2022/11/25 05:34:10;;;;;;;19.65;7.10;;;8.70;99.90;;;;;;5010543;28;20092;-69
2022/11/25 05:36:35;;;;;;;24.45;7.60;;;8.70;99.90;;;;;;5006765;28;20069;-69
2022/11/25 05:39:02;;;;;;;22.35;7.47;;;8.70;99.90;;;;;;5010694;28;20041;-68
2022/11/25 05:41:28;;;;;;;21.20;7.95;;;8.70;99.90;;;;;;5009145;28;20041;-68
2022/11/25 05:43:54;;;;;;;22.63;7.78;;;8.70;99.90;;;;;;5007105;28;20424;-68
2022/11/25 05:46:20;;;;;;;18.08;7.13;;;8.70;99.90;;;;;;5003770;28;20038;-68
2022/11/25 05:48:45;;;;;;;24.00;7.95;;;8.80;99.90;;;;;;5010963;28;20073;-68
2022/11/25 05:51:11;;;;;;;22.77;8.27;;;8.80;99.90;;;;;;5013430;28;20459;-68
2022/11/25 05:53:36;;;;;;;18.08;8.02;;;8.70;99.90;;;;;;5010111;28;20034;-70
2022/11/25 05:56:04;;;;;;;19.20;8.48;;;8.80;99.90;;;;;;5013682;28;20048;-69
2022/11/25 05:58:31;;;;;;;21.35;8.25;;;8.80;99.90;;;;;;5016531;28;20433;-69
2022/11/25 06:00:57;;;;;;;23.00;8.20;;;8.80;99.90;;;;;;5015234;28;20108;-69
2022/11/25 06:03:27;;;;;;;21.77;8.60;;;8.80;99.90;;;;;;5008412;28;20050;-69
2022/11/25 06:05:57;;;;;;;21.30;8.52;;;8.80;99.90;;;;;;5009635;28;20484;-69
2022/11/25 06:08:24;;;;;;;25.23;8.25;;;8.80;99.90;;;;;;5017037;28;20042;-69
2022/11/25 06:10:49;;;;;;;23.95;8.20;;;8.90;99.90;;;;;;5009121;28;20034;-70
2022/11/25 06:13:15;;;;;;;23.48;7.93;;;8.80;99.90;;;;;;5013008;28;20548;-68
2022/11/25 06:15:42;;;;;;;19.50;8.13;;;8.80;99.90;;;;;;5010333;28;20030;-68
2022/11/25 06:18:08;;;;;;;21.80;7.80;;;8.80;99.90;;;;;;5038577;28;20056;-67
2022/11/25 06:20:34;;;;;;;23.00;7.40;;;8.80;99.90;;;;;;5017105;28;20038;-67
2022/11/25 06:23:00;;;;;;;26.85;8.13;;;8.80;99.90;;;;;;5010243;28;20045;-67
2022/11/25 06:25:25;;;;;;;18.52;7.82;;;8.90;99.90;;;;;;5012041;28;20499;-66
2022/11/25 06:27:51;;;;;;;16.30;6.78;;;8.90;99.90;;;;;;5016380;28;20040;-68
2022/11/25 06:30:17;;;;;;;24.58;7.90;;;8.80;99.90;;;;;;5017428;28;20400;-68
2022/11/25 06:32:43;;;;;;;26.48;7.38;;;8.80;99.90;;;;;;5035027;28;20400;-68
2022/11/25 06:35:09;;;;;;;21.35;7.20;;;8.80;99.90;;;;;;5037573;28;20201;-67
2022/11/25 06:37:34;;;;;;;19.05;7.30;;;8.80;99.90;;;;;;5006775;28;20034;-67
2022/11/25 06:40:00;;;;;;;26.08;6.88;;;8.80;99.90;;;;;;5014138;28;20042;-68
2022/11/25 06:42:26;;;;;;;17.55;6.85;;;8.80;99.90;;;;;;5004870;28;20040;-69
2022/11/25 06:44:52;;;;;;;20.85;6.57;;;8.80;99.90;;;;;;5011195;28;20033;-69
2022/11/25 06:47:18;;;;;;;15.95;6.30;;;8.80;99.90;;;;;;5017660;28;20585;-69
2022/11/25 06:49:43;;;;;;;17.58;6.63;;;8.80;99.90;;;;;;5016483;28;20496;-69
2022/11/25 06:52:09;;;;;;;18.63;6.55;;;8.80;99.90;;;;;;5004658;28;20082;-70
2022/11/25 06:54:39;;;;;;;13.20;6.45;;;8.80;99.90;;;;;;5008885;28;20038;-68
2022/11/25 06:57:06;;;;;;;17.40;6.60;;;8.70;99.90;;;;;;5007553;28;20575;-69
2022/11/25 06:59:31;;;;;;;20.95;7.25;;;8.70;99.90;;;;;;5019628;28;20114;-68
2022/11/25 07:01:57;;;;;;;15.00;6.30;;;8.80;99.90;;;;;;5007361;28;20124;-67
2022/11/25 07:04:22;;;;;;;17.30;6.20;;;8.80;99.90;;;;;;5012603;28;20034;-66
2022/11/25 07:06:49;;;;;;;13.50;5.85;;;8.70;99.90;;;;;;5013531;28;20332;-67
2022/11/25 07:09:14;;;;;;;20.50;6.22;;;8.70;99.90;;;;;;5000742;28;20053;-67
2022/11/25 07:11:40;;;;;;;20.95;6.75;;;8.70;99.90;;;;;;5007453;28;20046;-67
2022/11/25 07:14:10;;;;;;;17.75;6.18;;;8.60;99.90;;;;;;5011792;28;20034;-67
2022/11/25 07:16:37;;;;;;;19.48;6.93;;;8.60;99.90;;;;;;5006805;28;20509;-67
2022/11/25 07:19:03;;;;;;;16.73;6.75;;;8.70;99.90;;;;;;5000807;28;20068;-67
2022/11/25 07:21:31;;;;;;;16.80;6.05;;;8.60;99.90;;;;;;4990881;28;20070;-67
2022/11/25 07:23:59;;;;;;;15.48;6.25;;;8.70;99.90;;;;;;5002608;28;20623;-67
2022/11/25 07:26:30;;;;;;;23.00;6.20;;;8.70;99.90;;;;;;5006616;28;20033;-67
2022/11/25 07:28:59;;;;;;;11.63;5.50;;;8.70;99.90;;;;;;5012130;28;20516;-67
2022/11/25 07:31:31;;;;;;;13.43;5.72;;;8.60;99.90;;;;;;5005079;28;20488;-67
2022/11/25 07:34:00;;;;;;;15.52;6.18;;;8.60;99.90;;;;;;4997106;28;20401;-67
2022/11/25 07:36:26;;;;;;;18.65;6.28;;;8.60;99.90;;;;;;5012174;28;20042;-67
2022/11/25 07:38:52;;;;;;;19.17;5.90;;;8.60;99.90;;;;;;4993081;28;20393;-67
2022/11/25 07:41:24;;;;;;;19.35;6.18;;;8.50;99.90;;;;;;4999390;28;20073;-67
2022/11/25 07:43:51;;;;;;;;;;;8.40;99.90;;;;;;5004491;28;20069;-67
2022/11/25 07:46:21;;;;;;;19.55;6.30;;;8.40;99.90;;;;;;5012086;28;20291;-67
2022/11/25 07:48:47;;;;;;;16.05;6.07;;;8.30;99.90;;;;;;5013424;28;20042;-67
2022/11/25 07:51:22;;;;;;;15.85;5.93;;;8.30;99.90;;;;;;5002713;28;20500;-67
2022/11/25 07:53:49;;;;;;;21.42;5.63;;;8.30;99.90;;;;;;5012490;28;20030;-67
2022/11/25 07:56:15;;;;;;;18.88;5.57;;;8.30;99.90;;;;;;4998896;28;20097;-67
2022/11/25 07:58:42;;;;;;;15.57;6.65;;;8.30;99.90;;;;;;5007215;28;20381;-67
2022/11/25 08:01:09;;;;;;;14.75;5.90;;;8.20;99.90;;;;;;5004910;28;20042;-67
2022/11/25 08:03:37;;;;;;;16.33;6.40;;;8.10;99.90;;;;;;5020826;28;20045;-67
2022/11/25 08:06:05;;;;;;;16.85;5.93;;;8.20;99.90;;;;;;5002516;28;20048;-66
2022/11/25 08:08:31;;;;;;;12.98;5.90;;;8.10;99.90;;;;;;4995570;28;20046;-67
2022/11/25 08:10:57;;;;;;;20.75;5.88;;;8.10;99.90;;;;;;5010371;28;20603;-67
2022/11/25 08:13:23;;;;;;;18.58;6.10;;;8.10;99.90;;;;;;5012212;28;20121;-68
2022/11/25 08:15:49;;;;;;;14.95;5.90;;;8.10;99.90;;;;;;5007402;28;20184;-67
2022/11/25 08:18:15;;;;;;;17.35;6.35;;;8.10;99.90;;;;;;5008976;28;20124;-67
2022/11/25 08:20:40;;;;;;;12.32;5.45;;;8.10;99.90;;;;;;5011232;28;20431;-67
2022/11/25 08:23:06;;;;;;;17.92;5.78;;;8.10;99.90;;;;;;5005520;28;20057;-68
2022/11/25 08:25:31;;;;;;;14.88;5.80;;;8.00;99.90;;;;;;5009121;28;20426;-67
2022/11/25 08:28:00;;;;;;;18.20;6.07;;;8.10;99.90;;;;;;5012703;28;20091;-67
2022/11/25 08:30:26;;;;;;;18.10;5.85;;;8.10;99.90;;;;;;5012261;28;20037;-68
2022/11/25 08:32:52;;;;;;;19.80;6.55;;;8.20;99.90;;;;;;5005318;28;20048;-67
2022/11/25 08:35:18;;;;;;;15.80;6.43;;;8.30;99.90;;;;;;5009718;28;20049;-69
2022/11/25 08:37:44;;;;;;;18.10;5.82;;;8.40;99.90;;;;;;5012842;28;20038;-70
2022/11/25 08:40:11;;;;;;;16.33;6.30;;;8.40;99.90;;;;;;5003960;28;20045;-68
2022/11/25 08:42:37;;;;;;;16.27;6.53;;;8.50;99.90;;;;;;5004594;28;20128;-67
2022/11/25 08:45:04;;;;;;;17.05;6.90;;;8.50;99.90;;;;;;5010334;28;20140;-67
2022/11/25 08:47:29;;;;;;;16.80;6.28;;;8.60;99.90;;;;;;5009437;28;20068;-67
2022/11/25 08:49:55;;;;;;;20.63;6.70;;;8.50;99.90;;;;;;5000589;28;20065;-67
2022/11/25 08:52:21;;;;;;;19.30;7.38;;;8.60;99.90;;;;;;5010071;28;20065;-67
2022/11/25 08:54:47;;;;;;;15.13;6.70;;;8.70;99.90;;;;;;5012375;28;20037;-68
2022/11/25 08:57:13;;;;;;;19.58;7.30;;;8.70;99.90;;;;;;4999943;28;20053;-67
2022/11/25 08:59:39;;;;;;;16.90;6.43;;;8.70;99.90;;;;;;5002678;28;20125;-67
2022/11/25 09:02:06;;;;;;;16.65;6.20;;;8.70;99.90;;;;;;4997026;28;20042;-68
2022/11/25 09:04:32;;;;;;;18.17;6.75;;;8.80;99.90;;;;;;5011933;28;20038;-69
2022/11/25 09:06:59;;;;;;;19.20;7.50;;;8.90;99.90;;;;;;5012196;28;20034;-70
2022/11/25 09:09:25;;;;;;;13.65;6.43;;;8.90;99.90;;;;;;4999701;28;20038;-69
2022/11/25 09:11:51;;;;;;;18.92;8.32;;;8.90;99.90;;;;;;5009338;28;20041;-68
2022/11/25 09:14:17;;;;;;;18.00;7.95;;;9.00;99.90;;;;;;5007673;28;20551;-68
2022/11/25 09:16:42;;;;;;;15.85;7.03;;;9.00;99.90;;;;;;5003962;28;20037;-68
2022/11/25 09:19:08;;;;;;;14.02;7.05;;;9.00;99.90;;;;;;5008167;28;20049;-69
2022/11/25 09:21:34;;;;;;;17.17;7.47;;;9.10;99.90;;;;;;4999943;28;20081;-68
2022/11/25 09:23:59;;;;;;;13.73;7.40;;;9.10;99.90;;;;;;4999982;28;20041;-68
2022/11/25 09:26:28;;;;;;;16.52;7.13;;;9.10;99.90;;;;;;4993861;28;20034;-68
2022/11/25 09:28:54;;;;;;;15.13;7.30;;;9.20;99.90;;;;;;5004667;28;20121;-68
2022/11/25 09:31:21;;;;;;;17.67;8.30;;;9.20;99.90;;;;;;5005166;28;20053;-68
2022/11/25 09:33:47;;;;;;;16.13;7.25;;;9.20;99.90;;;;;;5011317;28;20461;-68
2022/11/25 09:36:14;;;;;;;15.40;7.13;;;9.30;99.90;;;;;;5010977;28;20499;-69
2022/11/25 09:38:43;;;;;;;16.73;7.32;;;9.30;99.90;;;;;;5001956;28;20388;-68
2022/11/25 09:46:40;;;;;;;15.00;6.38;;;9.40;99.90;;;;;;5009367;28;20053;-68
2022/11/25 09:47:33;;;;;;;14.43;7.03;;;9.40;99.90;;;;;;4996290;28;20050;-69
2022/11/25 09:50:23;;;;;;;17.25;7.20;;;9.50;99.90;;;;;;5007391;28;20042;-68
2022/11/25 09:53:17;;;;;;;12.73;6.10;;;9.60;99.90;;;;;;5010146;28;20085;-68
2022/11/25 09:55:46;;;;;;;17.48;6.78;;;9.70;99.90;;;;;;4993252;28;20046;-68
2022/11/25 09:58:25;;;;;;;13.80;6.65;;;9.70;99.90;;;;;;5005954;28;20373;-68
2022/11/25 10:00:52;;;;;;;14.20;5.43;;;9.70;99.90;;;;;;5006936;28;20733;-68
2022/11/25 10:03:36;;;;;;;14.45;6.10;;;9.80;99.90;;;;;;4997480;28;20046;-69
2022/11/25 10:06:10;;;;;;;17.27;6.57;;;9.80;99.90;;;;;;4997017;28;20480;-68
2022/11/25 10:08:40;;;;;;;13.07;5.85;;;9.90;99.90;;;;;;5009808;28;20077;-68
2022/11/25 10:11:54;;;;;;;13.32;5.53;;;9.90;99.90;;;;;;5010017;28;20077;-68
2022/11/25 10:14:22;;;;;;;16.52;5.97;;;9.90;99.90;;;;;;4982188;28;20060;-68
2022/11/25 10:17:00;;;;;;;13.20;6.05;;;9.90;99.90;;;;;;5007594;28;20042;-68
2022/11/25 10:20:04;;;;;;;10.48;5.57;;;10.00;99.90;;;;;;5006353;28;20038;-67
2022/11/25 10:22:40;;;;;;;13.32;5.65;;;10.00;99.90;;;;;;5005118;28;20056;-67
2022/11/25 10:25:20;;;;;;;10.98;5.32;;;10.10;99.90;;;;;;5010134;28;20069;-68
2022/11/25 10:27:48;;;;;;;13.77;5.60;;;10.10;99.90;;;;;;5007256;28;20033;-68
2022/11/25 10:30:33;;;;;;;10.27;5.30;;;10.10;99.90;;;;;;4999639;28;20054;-66
2022/11/25 10:33:20;;;;;;;13.73;5.30;;;10.20;99.90;;;;;;5004327;28;20042;-67
2022/11/25 10:36:15;;;;;;;13.75;5.15;;;10.20;99.90;;;;;;5011850;28;20056;-67
2022/11/25 10:39:03;;;;;;;15.43;5.00;;;10.20;99.90;;;;;;5006810;28;20507;-67
2022/11/25 10:41:45;;;;;;;11.48;5.10;;;10.30;99.90;;;;;;5010784;28;20042;-67
2022/11/25 10:44:29;;;;;;;9.50;5.00;;;10.30;99.90;;;;;;5013570;28;20400;-67
2022/11/25 10:47:06;;;;;;;9.95;4.70;;;10.40;99.90;;;;;;5000646;28;20030;-67
2022/11/25 10:49:42;;;;;;;11.60;5.20;;;10.40;99.90;;;;;;5011735;28;20048;-67
2022/11/25 10:52:12;;;;;;;10.68;4.53;;;10.40;99.90;;;;;;5012836;28;20500;-68
2022/11/25 10:54:38;;;;;;;12.10;4.20;;;10.50;99.90;;;;;;4997990;28;20077;-67
2022/11/25 10:57:18;;;;;;;10.23;4.45;;;10.50;99.90;;;;;;5006403;28;20535;-67
2022/11/25 10:59:55;;;;;;;13.95;5.70;;;10.60;99.90;;;;;;5014582;28;20073;-67
2022/11/25 11:02:47;;;;;;;16.08;5.40;;;10.60;99.90;;;;;;5011189;28;20566;-69
2022/11/25 11:05:12;;;;;;;11.75;5.10;;;10.60;99.90;;;;;;5012861;28;20042;-67
2022/11/25 11:07:40;;;;;;;11.57;4.47;;;10.70;99.90;;;;;;5012858;28;20049;-67
2022/11/25 11:10:24;;;;;;;13.43;4.85;;;10.70;99.90;;;;;;5007862;28;20401;-68
2022/11/25 11:12:57;;;;;;;10.13;3.90;;;10.80;99.90;;;;;;5011918;28;20052;-67
2022/11/25 11:15:32;;;;;;;11.55;4.15;;;10.80;99.90;;;;;;5014197;28;20153;-68
2022/11/25 11:18:13;;;;;;;12.30;4.20;;;10.80;99.90;;;;;;5014417;28;20048;-67
2022/11/25 11:20:45;;;;;;;9.80;4.07;;;10.90;99.90;;;;;;4999150;28;20045;-67
2022/11/25 11:23:13;;;;;;;12.18;4.10;;;10.90;99.90;;;;;;5012488;28;20367;-68
2022/11/25 11:25:59;;;;;;;14.60;4.80;;;11.00;99.90;;;;;;5013780;28;20046;-68
2022/11/25 11:28:31;;;;;;;12.70;4.15;;;11.00;99.90;;;;;;4999414;28;20089;-68
2022/11/25 11:31:19;;;;;;;10.43;3.85;;;11.10;99.90;;;;;;5004149;28;20120;-68
2022/11/25 11:33:47;;;;;;;10.00;4.03;;;11.00;99.90;;;;;;5012393;28;20053;-68
2022/11/25 11:36:48;;;;;;;14.90;4.60;;;11.10;99.90;;;;;;5009150;28;20034;-68
2022/11/25 11:39:35;;;;;;;11.20;3.95;;;11.10;99.90;;;;;;4998823;28;20034;-68
2022/11/25 11:42:33;;;;;;;9.10;3.67;;;11.20;99.90;;;;;;4999369;28;20082;-67
2022/11/25 11:45:03;;;;;;;13.93;4.18;;;11.20;99.90;;;;;;4989161;28;20097;-68
2022/11/25 11:47:52;;;;;;;11.95;3.70;;;11.30;99.90;;;;;;5008841;28;20472;-68
2022/11/25 11:50:38;;;;;;;9.45;3.80;;;11.40;99.90;;;;;;5012525;28;20049;-68
2022/11/25 11:53:35;;;;;;;11.18;3.75;;;11.50;99.90;;;;;;4995818;28;20062;-69
2022/11/25 11:56:40;;;;;;;9.13;3.20;;;11.50;99.90;;;;;;5006379;28;20069;-70
2022/11/25 11:59:16;;;;;;;8.40;3.50;;;11.50;99.90;;;;;;4934929;28;20454;-68
2022/11/25 12:02:10;;;;;;;10.30;3.40;;;11.50;99.90;;;;;;4993200;28;20539;-68
2022/11/25 12:04:57;;;;;;;11.20;3.35;;;11.50;99.90;;;;;;4998772;28;20050;-68
2022/11/25 12:07:32;;;;;;;11.40;3.50;;;11.50;99.90;;;;;;5009775;28;20500;-70
2022/11/25 12:10:05;;;;;;;12.52;3.75;;;11.50;99.90;;;;;;5011404;28;20041;-69
2022/11/25 12:12:52;;;;;;;9.60;3.60;;;11.50;99.90;;;;;;5014035;28;20049;-69
2022/11/25 12:15:46;;;;;;;11.60;3.90;;;11.60;99.90;;;;;;5008385;28;20042;-69
2022/11/25 12:18:39;;;;;;;11.30;3.35;;;11.60;99.90;;;;;;5000943;28;20068;-69
2022/11/25 12:21:40;;;;;;;9.63;3.53;;;11.60;99.90;;;;;;4997309;28;20073;-69
2022/11/25 12:24:16;;;;;;;12.52;2.90;;;11.60;99.90;;;;;;5006010;28;20076;-70
2022/11/25 12:27:05;;;;;;;13.55;4.18;;;11.60;99.90;;;;;;5009951;28;20104;-70
2022/11/25 12:29:49;;;;;;;9.55;3.15;;;11.70;99.90;;;;;;5011229;28;20046;-70
2022/11/25 12:32:20;;;;;;;10.63;3.45;;;11.70;99.90;;;;;;5006624;28;20042;-69
2022/11/25 12:34:52;;;;;;;;;;;11.80;99.90;;;;;;4993770;28;20046;-69
2022/11/25 12:37:30;;;;;;;16.88;4.90;;;11.70;99.90;;;;;;5012697;28;19971;-70
2022/11/25 12:40:24;;;;;;;12.30;3.20;;;11.70;99.90;;;;;;5001654;28;20396;-70
2022/11/25 12:42:54;;;;;;;13.52;3.65;;;11.60;99.90;;;;;;5004384;28;20491;-70
2022/11/25 12:45:23;;;;;;;12.00;3.40;;;11.60;99.90;;;;;;5003033;28;20046;-70
2022/11/25 12:47:50;;;;;;;9.07;3.20;;;11.70;99.90;;;;;;5021457;28;20042;-71
2022/11/25 12:50:24;;;;;;;14.07;3.67;;;11.80;99.90;;;;;;4995180;28;20042;-70
2022/11/25 12:53:10;;;;;;;10.77;3.72;;;11.90;99.90;;;;;;5009109;28;20042;-70
2022/11/25 12:55:37;;;;;;;12.98;3.75;;;11.90;99.90;;;;;;5007792;28;20055;-70
2022/11/25 12:58:12;;;;;;;9.65;3.20;;;11.90;99.90;;;;;;5017844;28;20440;-69
2022/11/25 13:00:41;;;;;;;13.98;3.13;;;11.80;99.90;;;;;;4989784;28;20046;-70
2022/11/25 13:03:42;;;;;;;14.48;3.00;;;11.80;99.90;;;;;;4999341;28;20042;-70
2022/11/25 13:06:40;;;;;;;10.60;3.13;;;11.70;99.90;;;;;;4999445;28;20503;-70
2022/11/25 13:09:24;;;;;;;15.90;3.78;;;11.60;99.90;;;;;;4994327;28;20054;-70
2022/11/25 13:12:03;;;;;;;13.40;3.05;;;11.60;99.90;;;;;;5008117;28;20160;-70